Pagina principale
METAR-TAF:

METAR-TAF

Aeroporti :

Pruniers

Romorantin, Francia

latitudine: 47-19N, longitudine: 001-41E, altezza: 85 m

Osservazione

Il bollettino è stato emesso 43 minuti fa, alle 06:00 UTC
Vento calmo
Temperature 4°C
Umidità 100%
Pressione 1013 hPa
Visibilità: 5000 m
Cielo coperto ad un'altezza di 4800 ft
foschia

METAR: LFYR 180600Z AUTO 00000KT 5000 BR OVC048 04/04 Q1013 TEMPO 1500 BCFG BKN010

Ora: 07:43 (06:43 UTC)


TAF: mancante

Osservazioni e previsioni meteorologiche di più di 4000 aeroporti (messaggi METAR e TAF).

Le stazioni disponibili sono rappresentate dai dischi gialli e rossi sulla carta.

Puntare il mouse per vedere il nome della stazione.

Clicca sopra per visualizzare le osservazioni e previsioni meteorologiche.

Per cambiare la mappa : fare clic sui pulsanti verdi con una croce nera per ingrandire, il pulsante verde con un trattino per diminuire, o sulla freccia verde per le mappe adiacenti.


METAR-TAF: